Hub


Voltar

 INFORMAÇÕES METEOROLÓGICAS

METAR FOR KRAP


ADDS - METARS form results

(2023 UTC 17 January 2019)
Data provider http://aviationweather.gov/metar/data/
 
METAR text: KRAP 172019Z 12004KT 1/2SM FZFG OVC002 M04/M05 A2994 RMK AO2 T10391050 RVRNO
Conditions at: KRAP (RAPID CITY , SD, US) observed 2019 UTC 17 January 2019
Temperature: -3.9°C (25°F)
Dewpoint: -5.0°C (23°F) [RH = 92%]
Pressure (altimeter): 29.94 inches Hg (1014.0 mb)
Winds: from the ESE (120 degrees) at 5 MPH (4 knots; 2.1 m/s)
Visibility: 0.50 miles (0.80 km)
Ceiling: 200 feet AGL
Clouds: overcast cloud deck at 200 feet AGL
Weather: FZFG  (freezing fog)

METAR text: KRAP 172007Z 10004KT 1/4SM FZFG OVC002 M04/M05 A2994 RMK AO2 T10391050 RVRNO
Conditions at: KRAP (RAPID CITY , SD, US) observed 2007 UTC 17 January 2019
Temperature: -3.9°C (25°F)
Dewpoint: -5.0°C (23°F) [RH = 92%]
Pressure (altimeter): 29.94 inches Hg (1014.0 mb)
Winds: from the E (100 degrees) at 5 MPH (4 knots; 2.1 m/s)
Visibility: 0.25 miles (0.40 km)
Ceiling: 200 feet AGL
Clouds: overcast cloud deck at 200 feet AGL
Weather: FZFG  (freezing fog)

METAR text: KRAP 171952Z 08004KT 1/2SM FZFG OVC002 M04/M05 A2995 RMK AO2 SLP181 I1001 T10391050 RVRNO
Conditions at: KRAP (RAPID CITY , SD, US) observed 1952 UTC 17 January 2019
Temperature: -3.9°C (25°F)
Dewpoint: -5.0°C (23°F) [RH = 92%]
Pressure (altimeter): 29.95 inches Hg (1014.3 mb)
[Sea-level pressure: 1018.1 mb]
Winds: from the E (80 degrees) at 5 MPH (4 knots; 2.1 m/s)
Visibility: 0.50 miles (0.80 km)
Ceiling: 200 feet AGL
Clouds: overcast cloud deck at 200 feet AGL
Weather: FZFG  (freezing fog)

Forecast for: KRAP (RAPID CITY , SD, US)
Text: KRAP 171927Z 1719/1818 03005KT 1/2SM FZFG VV002
Forecast period: 1900 UTC 17 January 2019 to 0400 UTC 18 January 2019
Forecast type: FROM: standard forecast or significant change
Winds: from the NNE (30 degrees) at 6 MPH (5 knots; 2.6 m/s)
Visibility: 0.50 miles (0.80 km)
Ceiling: indefinite ceiling with vertical visibility of 200 feet AGL
Clouds: obscured sky
Weather: FZFG  (freezing fog)
Text: FM180400 05010KT 1SM -SN BR OVC007
Forecast period: 0400 to 1800 UTC 18 January 2019
Forecast type: FROM: standard forecast or significant change
Winds: from the NE (50 degrees) at 12 MPH (10 knots; 5.1 m/s)
Visibility: 1.00 miles (1.61 km)
Ceiling: 700 feet AGL
Clouds: overcast cloud deck at 700 feet AGL
Weather: -SN BR  (light snow, mist)


 MAPA DO AEROPORTO


 INFORMAÇÕES DA PISTA

Pista 05 Tamanho da pista 3601 ft Largura da pista 75 ft
Elevação da pista 3173 ft Ranhura da pista 0 ft Proa da pista 62
Pista 23 Tamanho da pista 3601 ft Largura da pista 75 ft
Elevação da pista 3204 ft Ranhura da pista 0 ft Proa da pista 242
Pista 14 Tamanho da pista 8701 ft Largura da pista 150 ft
Elevação da pista 3191 ft Ranhura da pista 0 ft Proa da pista 152
Pista 32 Tamanho da pista 8701 ft Largura da pista 150 ft
Elevação da pista 3143 ft Ranhura da pista 0 ft Proa da pista 332

 FREQUÊNCIAS DO AEROPORTO

Tipo APP Nome ELLSWORTH Frequência 119.5 MHZ
Tipo ASOS Nome ASOS Frequência 118.525 MHZ
Tipo CTAF Nome CTAF Frequência 125.85 MHZ
Tipo DEP Nome ELLSWORTH Frequência 119.5 MHZ
Tipo GND Nome GND Frequência 121.9 MHZ
Tipo OPS Nome ARNG OPS Frequência 41.5 MHZ
Tipo RDO Nome HURON RDO Frequência 122.65 MHZ
Tipo TWR Nome TWR Frequência 125.85 MHZ
Tipo UNIC Nome UNICOM Frequência 122.95 MHZ

 AUXÍLIOS DE NAVEGAÇÃO PRÓXIMOS AO AEROPORTO

Tipo NDB Nome Ranch Frequência 254 KHZ